createdAt,value
2022-09-14T00:00:33.255Z,14.87
2022-09-14T00:02:59.850Z,14.87
2022-09-14T00:05:26.343Z,14.85
2022-09-14T00:07:52.729Z,14.82
2022-09-14T00:10:19.146Z,14.81
2022-09-14T00:12:45.584Z,14.78
2022-09-14T00:15:11.998Z,14.78
2022-09-14T00:17:38.484Z,14.78
2022-09-14T00:20:05.404Z,14.76
2022-09-14T00:22:31.816Z,14.73
2022-09-14T00:24:58.227Z,14.72
2022-09-14T00:27:24.634Z,14.73
2022-09-14T00:29:51.088Z,14.71
2022-09-14T00:32:18.025Z,14.69
2022-09-14T00:34:44.638Z,14.70
2022-09-14T00:37:11.583Z,14.68
2022-09-14T00:39:37.995Z,14.68
2022-09-14T00:42:06.047Z,14.68
2022-09-14T00:44:32.380Z,14.69
2022-09-14T00:47:02.551Z,14.68
2022-09-14T00:49:35.876Z,14.68
2022-09-14T00:52:19.092Z,14.68
2022-09-14T00:54:48.739Z,14.66
2022-09-14T00:57:17.009Z,14.66
2022-09-14T00:59:44.268Z,14.65
2022-09-14T01:02:14.867Z,14.65
2022-09-14T01:04:42.402Z,14.62
2022-09-14T01:07:27.444Z,14.64
2022-09-14T01:10:08.703Z,14.63
2022-09-14T01:12:49.451Z,14.64
2022-09-14T01:15:21.406Z,14.63
2022-09-14T01:18:07.849Z,14.62
2022-09-14T01:20:40.758Z,14.61
2022-09-14T01:23:27.476Z,14.60
2022-09-14T01:26:16.110Z,14.58
2022-09-14T01:29:01.100Z,14.58
2022-09-14T01:31:47.378Z,14.58
2022-09-14T01:34:25.970Z,14.60
2022-09-14T01:36:59.674Z,14.58
2022-09-14T01:39:31.548Z,14.57
2022-09-14T01:41:59.649Z,14.58
2022-09-14T01:44:32.805Z,14.57
2022-09-14T01:47:12.700Z,14.55
2022-09-14T01:49:44.138Z,14.54
2022-09-14T01:52:16.345Z,14.53
2022-09-14T01:54:56.802Z,14.51
2022-09-14T01:57:32.864Z,14.50
2022-09-14T02:00:04.977Z,14.47
2022-09-14T02:02:40.400Z,14.46
2022-09-14T02:05:16.800Z,14.48
2022-09-14T02:07:43.280Z,14.47
2022-09-14T02:10:13.185Z,14.48
2022-09-14T02:12:40.438Z,14.48
2022-09-14T02:15:09.791Z,14.48
2022-09-14T02:17:36.363Z,14.48
2022-09-14T02:20:05.736Z,14.49
2022-09-14T02:22:32.171Z,14.49
2022-09-14T02:24:59.683Z,14.49
2022-09-14T02:27:26.246Z,14.47
2022-09-14T02:29:53.228Z,14.47
2022-09-14T02:32:34.647Z,14.47
2022-09-14T02:35:32.497Z,14.48
2022-09-14T02:38:05.166Z,14.47
2022-09-14T02:40:37.857Z,14.45
2022-09-14T02:43:07.260Z,14.46
2022-09-14T02:46:01.356Z,14.46
2022-09-14T02:48:55.487Z,14.45
2022-09-14T02:51:34.154Z,14.46
2022-09-14T02:54:15.507Z,14.46
2022-09-14T02:56:42.230Z,14.45
2022-09-14T02:59:08.619Z,14.47
2022-09-14T03:01:35.051Z,14.47
2022-09-14T03:04:01.714Z,14.46
2022-09-14T03:06:28.112Z,14.44
2022-09-14T03:08:54.508Z,14.43
2022-09-14T03:11:20.952Z,14.43
2022-09-14T03:13:47.435Z,14.42
2022-09-14T03:16:16.074Z,14.43
2022-09-14T03:18:43.052Z,14.42
2022-09-14T03:21:15.244Z,14.43
2022-09-14T03:23:44.466Z,14.42
2022-09-14T03:26:13.874Z,14.41
2022-09-14T03:28:40.751Z,14.39
2022-09-14T03:31:09.562Z,14.38
2022-09-14T03:33:36.554Z,14.37
2022-09-14T03:36:14.849Z,14.37
2022-09-14T03:38:46.134Z,14.35
2022-09-14T03:41:13.780Z,14.33
2022-09-14T03:43:41.218Z,14.32
2022-09-14T03:46:16.763Z,14.33
2022-09-14T03:48:44.123Z,14.33
2022-09-14T03:51:12.289Z,14.32
2022-09-14T03:53:39.463Z,14.31
2022-09-14T03:56:11.609Z,14.29
2022-09-14T03:58:38.660Z,14.29
2022-09-14T04:01:10.551Z,14.28
2022-09-14T04:03:37.486Z,14.25
2022-09-14T04:06:05.350Z,14.23
2022-09-14T04:08:38.118Z,14.21
2022-09-14T04:11:24.654Z,14.20
2022-09-14T04:13:52.183Z,14.19
2022-09-14T04:16:20.849Z,14.18
2022-09-14T04:18:48.062Z,14.19
2022-09-14T04:21:19.954Z,14.17
2022-09-14T04:24:12.804Z,14.12
2022-09-14T04:26:34.018Z,14.10
2022-09-14T04:29:00.660Z,14.08
2022-09-14T04:31:27.192Z,14.07
2022-09-14T04:33:56.861Z,14.10
2022-09-14T04:36:28.121Z,14.06
2022-09-14T04:38:55.883Z,14.05
2022-09-14T04:41:22.892Z,14.05
2022-09-14T04:43:51.297Z,14.07
2022-09-14T04:46:20.345Z,14.05
2022-09-14T04:48:47.134Z,14.03
2022-09-14T04:51:19.719Z,14.04
2022-09-14T04:53:49.948Z,14.06
2022-09-14T04:56:17.527Z,14.03
2022-09-14T04:58:50.800Z,14.03
2022-09-14T05:01:23.860Z,14.00
2022-09-14T05:03:51.175Z,13.99
2022-09-14T05:06:26.212Z,13.97
2022-09-14T05:08:53.852Z,13.97
2022-09-14T05:11:25.064Z,13.97
2022-09-14T05:13:52.176Z,13.98
2022-09-14T05:16:21.395Z,13.96
2022-09-14T05:18:48.718Z,13.98
2022-09-14T05:21:17.483Z,13.95
2022-09-14T05:23:44.537Z,13.90
2022-09-14T05:26:11.580Z,13.88
2022-09-14T05:28:38.682Z,13.87
2022-09-14T05:31:07.560Z,13.89
2022-09-14T05:33:34.665Z,13.92
2022-09-14T05:36:06.330Z,13.90
2022-09-14T05:38:35.142Z,13.92
2022-09-14T05:41:01.853Z,13.93
2022-09-14T05:43:29.401Z,13.93
2022-09-14T05:45:56.469Z,13.92
2022-09-14T05:48:22.957Z,13.95
2022-09-14T05:50:49.311Z,13.97
2022-09-14T05:53:15.679Z,14.00
2022-09-14T05:55:42.069Z,13.97
2022-09-14T05:58:08.483Z,13.98
2022-09-14T06:00:34.953Z,14.03
2022-09-14T06:03:01.355Z,14.09
2022-09-14T06:05:28.153Z,14.12
2022-09-14T06:07:54.923Z,14.13
2022-09-14T06:10:21.958Z,14.16
2022-09-14T06:12:51.230Z,14.20
2022-09-14T06:15:21.443Z,14.24
2022-09-14T06:17:47.808Z,14.25
2022-09-14T06:20:14.854Z,14.26
2022-09-14T06:22:41.247Z,14.26
2022-09-14T06:25:07.993Z,14.26
2022-09-14T06:27:34.362Z,14.28
2022-09-14T06:30:00.800Z,14.31
2022-09-14T06:32:30.090Z,14.31
2022-09-14T06:34:56.763Z,14.35
2022-09-14T06:37:23.489Z,14.39
2022-09-14T06:39:49.957Z,14.49
2022-09-14T06:42:16.406Z,14.53
2022-09-14T06:44:42.908Z,14.55
2022-09-14T06:47:09.321Z,14.59
2022-09-14T06:49:35.716Z,14.61
2022-09-14T06:52:02.306Z,14.60
2022-09-14T06:54:29.163Z,14.66
2022-09-14T06:56:55.561Z,14.64
2022-09-14T06:59:22.058Z,14.63
2022-09-14T07:01:51.463Z,14.62
2022-09-14T07:04:18.653Z,14.59
2022-09-14T07:06:49.662Z,14.59
2022-09-14T07:09:17.930Z,14.60
2022-09-14T07:11:44.938Z,14.60
2022-09-14T07:14:11.909Z,14.63
2022-09-14T07:16:39.589Z,14.64
2022-09-14T07:19:09.703Z,14.68
2022-09-14T07:21:36.341Z,14.66
2022-09-14T07:24:03.317Z,14.73
2022-09-14T07:26:33.528Z,14.82
2022-09-14T07:29:02.143Z,14.80
2022-09-14T07:31:30.325Z,14.84
2022-09-14T07:33:58.860Z,14.88
2022-09-14T07:36:26.639Z,14.93
2022-09-14T07:38:54.037Z,14.97
2022-09-14T07:41:25.854Z,15.00
2022-09-14T07:43:53.008Z,15.02
2022-09-14T07:46:21.076Z,15.04
2022-09-14T07:48:48.885Z,15.06
2022-09-14T07:51:15.374Z,15.08
2022-09-14T07:53:43.249Z,15.12
2022-09-14T07:56:11.474Z,15.17
2022-09-14T07:58:38.858Z,15.22
2022-09-14T08:01:08.554Z,15.24
2022-09-14T08:03:40.165Z,15.24
2022-09-14T08:06:11.780Z,15.29
2022-09-14T08:08:41.838Z,15.34
2022-09-14T08:11:11.185Z,15.37
2022-09-14T08:13:40.613Z,15.41
2022-09-14T08:16:07.799Z,15.46
2022-09-14T08:18:35.828Z,15.47
2022-09-14T08:21:13.730Z,15.52
2022-09-14T08:23:41.431Z,15.56
2022-09-14T08:26:13.190Z,15.57
2022-09-14T08:28:39.604Z,15.63
2022-09-14T08:31:15.886Z,15.68
2022-09-14T08:33:44.923Z,15.75
2022-09-14T08:36:14.903Z,15.83
2022-09-14T08:38:41.524Z,15.88
2022-09-14T08:41:19.825Z,15.89
2022-09-14T08:43:46.730Z,15.91
2022-09-14T08:46:33.262Z,15.92
2022-09-14T08:49:02.478Z,15.92
2022-09-14T08:51:29.710Z,15.98
2022-09-14T08:53:59.381Z,15.99
2022-09-14T08:56:33.557Z,15.98
2022-09-14T08:59:09.164Z,16.00
2022-09-14T09:01:47.952Z,16.06
2022-09-14T09:04:29.298Z,16.17
2022-09-14T09:07:05.678Z,16.20
2022-09-14T09:09:50.453Z,16.23
2022-09-14T09:12:41.909Z,16.26
2022-09-14T09:15:29.283Z,16.28
2022-09-14T09:18:05.351Z,16.34
2022-09-14T09:20:40.336Z,16.37
2022-09-14T09:23:16.247Z,16.44
2022-09-14T09:26:01.270Z,16.46
2022-09-14T09:28:29.698Z,16.53
2022-09-14T09:31:01.026Z,16.60
2022-09-14T09:33:44.359Z,16.65
2022-09-14T09:36:18.020Z,16.76
2022-09-14T09:38:44.596Z,16.84
2022-09-14T09:41:35.295Z,16.93
2022-09-14T09:44:07.029Z,16.98
2022-09-14T09:46:35.597Z,17.08
2022-09-14T09:49:14.467Z,17.14
2022-09-14T09:51:41.157Z,17.20
2022-09-14T09:54:13.564Z,17.20
2022-09-14T09:56:51.970Z,17.19
2022-09-14T09:59:36.485Z,17.23
2022-09-14T10:02:26.984Z,17.27
2022-09-14T10:05:03.996Z,17.32
2022-09-14T10:07:32.904Z,17.31
2022-09-14T10:10:06.441Z,17.34
2022-09-14T10:12:33.570Z,17.40
2022-09-14T10:15:11.998Z,17.49
2022-09-14T10:17:38.535Z,17.53
2022-09-14T10:20:06.235Z,17.52
2022-09-14T10:22:34.759Z,17.52
2022-09-14T10:25:02.718Z,17.50
2022-09-14T10:28:01.606Z,17.50
2022-09-14T10:30:43.491Z,17.48
2022-09-14T10:33:15.039Z,17.51
2022-09-14T10:35:56.263Z,17.51
2022-09-14T10:38:52.937Z,17.51
2022-09-14T10:41:30.955Z,17.54
2022-09-14T10:44:00.340Z,17.52
2022-09-14T10:46:37.511Z,17.57
2022-09-14T10:49:27.234Z,17.60
2022-09-14T10:52:24.204Z,17.67
2022-09-14T10:55:06.984Z,17.67
2022-09-14T10:57:47.310Z,17.68
2022-09-14T11:00:18.563Z,17.72
2022-09-14T11:03:00.221Z,17.81
2022-09-14T11:05:31.368Z,17.91
2022-09-14T11:08:27.115Z,17.90
2022-09-14T11:11:15.208Z,18.00
2022-09-14T11:13:50.409Z,18.05
2022-09-14T11:16:28.921Z,18.14
2022-09-14T11:19:35.112Z,18.24
2022-09-14T11:22:20.137Z,18.32
2022-09-14T11:25:10.273Z,18.38
2022-09-14T11:27:46.411Z,18.44
2022-09-14T11:30:19.761Z,18.50
2022-09-14T11:32:53.440Z,18.52
2022-09-14T11:35:34.538Z,18.47
2022-09-14T11:38:07.512Z,18.43
2022-09-14T11:40:44.458Z,18.49
2022-09-14T11:43:17.504Z,18.52
2022-09-14T11:45:52.835Z,18.63
2022-09-14T11:48:42.488Z,18.72
2022-09-14T11:51:17.181Z,18.78
2022-09-14T11:53:44.992Z,18.74
2022-09-14T11:56:26.116Z,18.75
2022-09-14T11:58:58.729Z,18.81
2022-09-14T12:01:29.488Z,18.86
2022-09-14T12:04:01.987Z,18.82
2022-09-14T12:06:28.414Z,18.81
2022-09-14T12:08:54.926Z,18.81
2022-09-14T12:11:30.400Z,18.79
2022-09-14T12:14:26.829Z,18.86
2022-09-14T12:17:13.033Z,19.00
2022-09-14T12:19:52.252Z,19.07
2022-09-14T12:22:38.039Z,19.25
2022-09-14T12:25:14.775Z,19.31
2022-09-14T12:27:42.965Z,19.29
2022-09-14T12:30:54.116Z,19.25
2022-09-14T12:33:32.699Z,19.31
2022-09-14T12:36:32.250Z,19.40
2022-09-14T12:38:58.883Z,19.42
2022-09-14T12:41:25.237Z,19.44
2022-09-14T12:43:51.660Z,19.32
2022-09-14T12:46:21.352Z,19.30
2022-09-14T12:48:47.949Z,19.16
2022-09-14T12:51:21.124Z,19.13
2022-09-14T12:53:57.698Z,19.22
2022-09-14T12:56:35.068Z,19.33
2022-09-14T12:59:45.041Z,19.41
2022-09-14T13:02:37.595Z,19.58
2022-09-14T13:05:07.960Z,19.70
2022-09-14T13:07:36.140Z,19.82
2022-09-14T13:10:06.263Z,20.01
2022-09-14T13:12:44.750Z,20.14
2022-09-14T13:15:25.749Z,20.29
2022-09-14T13:18:18.046Z,20.44
2022-09-14T13:20:56.080Z,20.53
2022-09-14T13:23:26.858Z,20.50
2022-09-14T13:25:53.680Z,20.45
2022-09-14T13:28:21.196Z,20.42
2022-09-14T13:30:55.243Z,20.34
2022-09-14T13:33:21.795Z,20.20
2022-09-14T13:35:55.093Z,20.10
2022-09-14T13:38:25.318Z,20.11
2022-09-14T13:40:55.088Z,20.10
2022-09-14T13:43:22.980Z,20.17
2022-09-14T13:45:51.542Z,20.19
2022-09-14T13:48:20.257Z,20.27
2022-09-14T13:50:51.801Z,20.35
2022-09-14T13:53:36.277Z,20.48
2022-09-14T13:56:31.061Z,20.40
2022-09-14T13:59:06.875Z,20.41
2022-09-14T14:01:37.691Z,20.48
2022-09-14T14:04:04.390Z,20.46
2022-09-14T14:06:32.703Z,20.39
2022-09-14T14:09:07.991Z,20.38
2022-09-14T14:11:41.632Z,20.32
2022-09-14T14:14:17.139Z,20.33
2022-09-14T14:17:19.898Z,20.34
2022-09-14T14:19:46.772Z,20.28
2022-09-14T14:22:26.723Z,20.33
2022-09-14T14:25:12.824Z,20.27
2022-09-14T14:27:46.079Z,20.22
2022-09-14T14:30:21.141Z,20.17
2022-09-14T14:32:51.662Z,20.17
2022-09-14T14:35:22.213Z,20.14
2022-09-14T14:37:50.130Z,20.13
2022-09-14T14:40:17.786Z,20.12
2022-09-14T14:42:45.064Z,20.10
2022-09-14T14:45:18.972Z,20.09
2022-09-14T14:47:47.216Z,20.04
2022-09-14T14:50:27.907Z,20.04
2022-09-14T14:52:54.626Z,20.04
2022-09-14T14:55:22.270Z,20.04
2022-09-14T14:57:50.088Z,20.07
2022-09-14T15:00:19.780Z,20.05
2022-09-14T15:02:46.314Z,20.10
2022-09-14T15:05:13.272Z,20.18
2022-09-14T15:07:39.739Z,20.24
2022-09-14T15:10:07.915Z,20.37
2022-09-14T15:12:35.627Z,20.36
2022-09-14T15:15:02.272Z,20.27
2022-09-14T15:17:28.752Z,20.21
2022-09-14T15:19:55.145Z,20.23
2022-09-14T15:22:21.676Z,20.18
2022-09-14T15:24:48.068Z,20.10
2022-09-14T15:27:14.755Z,20.03
2022-09-14T15:29:41.159Z,19.94
2022-09-14T15:32:07.596Z,19.85
2022-09-14T15:34:34.052Z,19.82
2022-09-14T15:37:00.455Z,19.75
2022-09-14T15:39:29.469Z,19.73
2022-09-14T15:41:56.217Z,19.74
2022-09-14T15:44:22.932Z,19.68
2022-09-14T15:46:49.833Z,19.63
2022-09-14T15:49:25.992Z,19.60
2022-09-14T15:51:54.367Z,19.56
2022-09-14T15:54:25.465Z,19.55
2022-09-14T15:56:54.848Z,19.54
2022-09-14T15:59:22.093Z,19.48
2022-09-14T16:01:48.833Z,19.40
2022-09-14T16:04:15.301Z,19.40
2022-09-14T16:06:41.931Z,19.37
2022-09-14T16:09:10.517Z,19.33
2022-09-14T16:11:38.380Z,19.30
2022-09-14T16:14:06.599Z,19.29
2022-09-14T16:16:34.837Z,19.25
2022-09-14T16:19:11.608Z,19.26
2022-09-14T16:21:38.642Z,19.24
2022-09-14T16:24:07.677Z,19.25
2022-09-14T16:26:36.551Z,19.25
2022-09-14T16:29:04.604Z,19.21
2022-09-14T16:31:33.160Z,19.19
2022-09-14T16:34:02.112Z,19.13
2022-09-14T16:36:32.343Z,19.06
2022-09-14T16:39:01.708Z,19.02
2022-09-14T16:41:28.589Z,19.00
2022-09-14T16:43:56.916Z,18.96
2022-09-14T16:46:24.280Z,18.88
2022-09-14T16:48:51.411Z,18.88
2022-09-14T16:51:20.500Z,18.86
2022-09-14T16:53:48.431Z,18.78
2022-09-14T16:56:17.388Z,18.71
2022-09-14T16:58:44.876Z,18.67
2022-09-14T17:01:13.068Z,18.59
2022-09-14T17:03:40.357Z,18.53
2022-09-14T17:06:09.470Z,18.47
2022-09-14T17:08:38.660Z,18.43
2022-09-14T17:11:07.502Z,18.38
2022-09-14T17:13:34.348Z,18.35
2022-09-14T17:16:10.921Z,18.32
2022-09-14T17:18:38.799Z,18.29
2022-09-14T17:21:10.990Z,18.27
2022-09-14T17:23:37.766Z,18.24
2022-09-14T17:26:06.462Z,18.18
2022-09-14T17:28:34.806Z,18.12
2022-09-14T17:31:03.226Z,18.08
2022-09-14T17:33:30.556Z,18.07
2022-09-14T17:35:58.635Z,18.04
2022-09-14T17:38:28.171Z,18.03
2022-09-14T17:41:13.870Z,17.99
2022-09-14T17:43:41.103Z,17.96
2022-09-14T17:46:12.855Z,17.92
2022-09-14T17:48:40.780Z,17.91
2022-09-14T17:51:14.162Z,17.88
2022-09-14T17:53:42.540Z,17.80
2022-09-14T17:56:10.902Z,17.77
2022-09-14T17:58:37.556Z,17.75
2022-09-14T18:01:06.015Z,17.72
2022-09-14T18:03:32.563Z,17.70
2022-09-14T18:05:59.007Z,17.66
2022-09-14T18:08:25.490Z,17.65
2022-09-14T18:10:51.865Z,17.59
2022-09-14T18:13:18.259Z,17.58
2022-09-14T18:15:44.951Z,17.56
2022-09-14T18:18:12.587Z,17.53
2022-09-14T18:20:38.971Z,17.50
2022-09-14T18:23:05.384Z,17.46
2022-09-14T18:25:32.063Z,17.45
2022-09-14T18:27:58.452Z,17.43
2022-09-14T18:30:24.879Z,17.39
2022-09-14T18:32:52.749Z,17.36
2022-09-14T18:35:19.172Z,17.31
2022-09-14T18:37:45.620Z,17.25
2022-09-14T18:40:12.050Z,17.23
2022-09-14T18:42:38.508Z,17.22
2022-09-14T18:45:05.281Z,17.17
2022-09-14T18:47:31.661Z,17.15
2022-09-14T18:49:58.038Z,17.09
2022-09-14T18:52:24.511Z,17.04
2022-09-14T18:54:50.888Z,16.98
2022-09-14T18:57:19.355Z,16.95
2022-09-14T18:59:45.779Z,16.92
2022-09-14T19:02:12.215Z,16.88
2022-09-14T19:04:38.827Z,16.83
2022-09-14T19:07:05.631Z,16.79
2022-09-14T19:09:32.063Z,16.72
2022-09-14T19:11:58.427Z,16.69
2022-09-14T19:14:24.900Z,16.67
2022-09-14T19:16:51.461Z,16.61
2022-09-14T19:19:17.893Z,16.59
2022-09-14T19:21:45.180Z,16.57
2022-09-14T19:24:14.923Z,16.54
2022-09-14T19:26:46.058Z,16.54
2022-09-14T19:29:20.073Z,16.51
2022-09-14T19:31:50.807Z,16.47
2022-09-14T19:34:18.812Z,16.45
2022-09-14T19:36:46.004Z,16.44
2022-09-14T19:39:12.557Z,16.42
2022-09-14T19:41:39.926Z,16.41
2022-09-14T19:44:07.597Z,16.40
2022-09-14T19:46:36.266Z,16.38
2022-09-14T19:49:02.767Z,16.39
2022-09-14T19:51:30.648Z,16.35
2022-09-14T19:53:59.387Z,16.31
2022-09-14T19:56:28.079Z,16.26
2022-09-14T19:58:57.271Z,16.21
2022-09-14T20:01:25.513Z,16.16
2022-09-14T20:03:52.930Z,16.10
2022-09-14T20:06:23.171Z,16.05
2022-09-14T20:08:51.573Z,15.97
2022-09-14T20:11:20.379Z,15.92
2022-09-14T20:13:48.368Z,15.85
2022-09-14T20:16:28.529Z,15.77
2022-09-14T20:18:57.084Z,15.70
2022-09-14T20:21:25.829Z,15.62
2022-09-14T20:24:16.220Z,15.57
2022-09-14T20:26:44.099Z,15.49
2022-09-14T20:29:11.037Z,15.38
2022-09-14T20:31:38.530Z,15.34
2022-09-14T20:34:05.167Z,15.25
2022-09-14T20:36:32.337Z,15.20
2022-09-14T20:38:59.556Z,15.16
2022-09-14T20:41:33.190Z,15.08
2022-09-14T20:43:59.762Z,14.98
2022-09-14T20:46:31.796Z,14.91
2022-09-14T20:48:58.529Z,14.89
2022-09-14T20:51:25.321Z,14.86
2022-09-14T20:53:52.326Z,14.84
2022-09-14T20:56:22.201Z,14.84
2022-09-14T20:58:49.462Z,14.81
2022-09-14T21:01:18.926Z,14.81
2022-09-14T21:03:47.461Z,14.81
2022-09-14T21:06:16.439Z,14.79
2022-09-14T21:08:43.311Z,14.78
2022-09-14T21:11:12.797Z,14.76
2022-09-14T21:13:39.736Z,14.78
2022-09-14T21:16:15.516Z,14.78
2022-09-14T21:18:42.612Z,14.74
2022-09-14T21:21:19.721Z,14.66
2022-09-14T21:23:48.489Z,14.56
2022-09-14T21:26:15.167Z,14.49
2022-09-14T21:28:42.180Z,14.45
2022-09-14T21:31:10.393Z,14.43
2022-09-14T21:33:39.415Z,14.40
2022-09-14T21:36:14.678Z,14.30
2022-09-14T21:38:41.360Z,14.25
2022-09-14T21:41:09.919Z,14.20
2022-09-14T21:43:38.051Z,14.13
2022-09-14T21:46:05.113Z,14.06
2022-09-14T21:48:32.013Z,14.03
2022-09-14T21:51:05.268Z,13.98
2022-09-14T21:53:32.759Z,13.94
2022-09-14T21:55:59.256Z,13.85
2022-09-14T21:58:25.702Z,13.77
2022-09-14T22:00:59.091Z,13.76
2022-09-14T22:03:26.035Z,13.71
2022-09-14T22:06:00.953Z,13.63
2022-09-14T22:08:29.395Z,13.61
2022-09-14T22:11:01.861Z,13.59
2022-09-14T22:13:28.239Z,13.58
2022-09-14T22:15:54.978Z,13.58
2022-09-14T22:18:21.399Z,13.54
2022-09-14T22:20:56.845Z,13.51
2022-09-14T22:23:23.312Z,13.47
2022-09-14T22:25:49.722Z,13.46
2022-09-14T22:28:16.110Z,13.45
2022-09-14T22:30:53.913Z,13.47
2022-09-14T22:33:22.230Z,13.48
2022-09-14T22:35:56.686Z,13.50
2022-09-14T22:38:25.201Z,13.47
2022-09-14T22:40:59.653Z,13.47
2022-09-14T22:43:27.087Z,13.50
2022-09-14T22:45:54.439Z,13.52
2022-09-14T22:48:22.391Z,13.52
2022-09-14T22:50:55.994Z,13.50
2022-09-14T22:53:24.636Z,13.49
2022-09-14T22:55:51.543Z,13.47
2022-09-14T22:58:20.152Z,13.50
2022-09-14T23:00:47.499Z,13.52
2022-09-14T23:03:15.692Z,13.52
2022-09-14T23:05:53.661Z,13.53
2022-09-14T23:08:20.353Z,13.53
2022-09-14T23:10:47.860Z,13.50
2022-09-14T23:13:15.330Z,13.52
2022-09-14T23:15:42.052Z,13.54
2022-09-14T23:18:09.015Z,13.56
2022-09-14T23:20:40.081Z,13.56
2022-09-14T23:23:07.187Z,13.59
2022-09-14T23:25:35.402Z,13.57
2022-09-14T23:28:03.235Z,13.59
2022-09-14T23:30:29.735Z,13.58
2022-09-14T23:32:56.439Z,13.57
2022-09-14T23:35:22.855Z,13.57
2022-09-14T23:37:49.338Z,13.61
2022-09-14T23:40:18.173Z,13.65
2022-09-14T23:42:44.641Z,13.66
2022-09-14T23:45:11.647Z,13.65
2022-09-14T23:47:38.011Z,13.66
2022-09-14T23:50:04.880Z,13.67
2022-09-14T23:52:31.852Z,13.68
2022-09-14T23:54:58.377Z,13.68
2022-09-14T23:57:24.736Z,13.65
2022-09-14T23:59:51.360Z,13.63
